createdAt,value
2023-05-20T00:00:17.335Z,100658.31
2023-05-20T00:03:04.415Z,100659.88
2023-05-20T00:05:51.520Z,100659.59
2023-05-20T00:08:31.307Z,100657.59
2023-05-20T00:11:18.291Z,100659.66
2023-05-20T00:14:05.309Z,100667.97
2023-05-20T00:16:45.805Z,100659.50
2023-05-20T00:19:32.279Z,100667.06
2023-05-20T00:22:12.660Z,100654.94
2023-05-20T00:24:59.328Z,100658.84
2023-05-20T00:27:47.310Z,100664.63
2023-05-20T00:30:27.268Z,100655.19
2023-05-20T00:33:08.083Z,100649.25
2023-05-20T00:35:55.298Z,100655.91
2023-05-20T00:38:42.281Z,100656.28
2023-05-20T00:41:29.258Z,100654.22
2023-05-20T00:44:10.220Z,100647.56
2023-05-20T00:46:58.253Z,100636.88
2023-05-20T00:49:45.889Z,100647.34
2023-05-20T00:52:35.289Z,100642.50
2023-05-20T00:55:22.275Z,100642.19
2023-05-20T00:58:02.317Z,100638.72
2023-05-20T01:00:49.201Z,100637.16
2023-05-20T01:03:29.453Z,100637.53
2023-05-20T01:06:16.224Z,100631.28
2023-05-20T01:09:03.257Z,100635.31
2023-05-20T01:11:57.236Z,100636.06
2023-05-20T01:14:50.256Z,100631.22
2023-05-20T01:17:33.235Z,100633.56
2023-05-20T01:20:22.247Z,100636.28
2023-05-20T01:23:03.414Z,100632.38
2023-05-20T01:25:50.176Z,100627.47
2023-05-20T01:28:30.637Z,100628.66
2023-05-20T01:31:20.239Z,100622.19
2023-05-20T01:34:08.179Z,100620.84
2023-05-20T01:36:56.197Z,100630.41
2023-05-20T01:39:41.806Z,100628.78
2023-05-20T01:42:29.192Z,100626.25
2023-05-20T01:45:10.056Z,100632.66
2023-05-20T01:47:59.223Z,100632.94
2023-05-20T01:50:40.111Z,100634.91
2023-05-20T01:53:27.133Z,100623.91
2023-05-20T01:56:07.519Z,100635.06
2023-05-20T01:58:54.152Z,100635.97
2023-05-20T02:01:41.202Z,100628.88
2023-05-20T02:04:22.765Z,100632.13
2023-05-20T02:07:09.149Z,100649.09
2023-05-20T02:09:49.293Z,100653.59
2023-05-20T02:12:36.141Z,100644.78
2023-05-20T02:15:16.373Z,100642.63
2023-05-20T02:18:04.215Z,100652.34
2023-05-20T02:20:44.231Z,100660.22
2023-05-20T02:23:31.124Z,100660.81
2023-05-20T02:26:18.142Z,100652.75
2023-05-20T02:28:58.530Z,100649.97
2023-05-20T02:31:45.171Z,100655.38
2023-05-20T02:34:26.343Z,100657.41
2023-05-20T02:37:13.117Z,100657.00
2023-05-20T02:39:53.509Z,100651.44
2023-05-20T02:42:40.129Z,100653.59
2023-05-20T02:45:27.089Z,100665.53
2023-05-20T02:48:21.130Z,100672.22
2023-05-20T02:51:08.107Z,100675.09
2023-05-20T02:53:48.189Z,100675.91
2023-05-20T02:56:35.125Z,100682.66
2023-05-20T02:59:22.111Z,100685.88
2023-05-20T03:02:03.311Z,100692.63
2023-05-20T03:04:50.118Z,100694.16
2023-05-20T03:07:30.500Z,100701.28
2023-05-20T03:10:21.089Z,100695.69
2023-05-20T03:13:08.092Z,100705.22
2023-05-20T03:15:56.135Z,100705.50
2023-05-20T03:18:36.437Z,100700.47
2023-05-20T03:21:23.100Z,100695.22
2023-05-20T03:24:03.557Z,100688.78
2023-05-20T03:26:50.112Z,100698.28
2023-05-20T03:29:38.064Z,100696.25
2023-05-20T03:32:18.217Z,100701.81
2023-05-20T03:35:07.082Z,100696.78
2023-05-20T03:37:47.101Z,100694.22
2023-05-20T03:40:36.106Z,100703.34
2023-05-20T03:43:16.257Z,100695.50
2023-05-20T03:46:10.095Z,100687.94
2023-05-20T03:49:04.022Z,100688.03
2023-05-20T03:51:51.033Z,100678.03
2023-05-20T03:54:31.671Z,100679.13
2023-05-20T03:57:19.051Z,100679.78
2023-05-20T04:00:06.022Z,100677.69
2023-05-20T04:03:03.178Z,100669.25
2023-05-20T04:05:43.124Z,100688.06
2023-05-20T04:08:33.983Z,100679.75
2023-05-20T04:11:14.074Z,100693.00
2023-05-20T04:14:01.017Z,100684.38
2023-05-20T04:16:41.201Z,100678.16
2023-05-20T04:19:28.082Z,100678.34
2023-05-20T04:22:08.060Z,100672.94
2023-05-20T04:24:54.996Z,100663.41
2023-05-20T04:27:35.168Z,100656.94
2023-05-20T04:30:25.031Z,100655.56
2023-05-20T04:33:05.108Z,100650.38
2023-05-20T04:35:54.985Z,100646.69
2023-05-20T04:38:36.148Z,100651.69
2023-05-20T04:41:23.020Z,100649.00
2023-05-20T04:44:03.941Z,100653.75
2023-05-20T04:46:50.945Z,100648.28
2023-05-20T04:49:31.136Z,100653.16
2023-05-20T04:52:17.975Z,100663.47
2023-05-20T04:54:59.083Z,100659.97
2023-05-20T04:57:47.965Z,100656.72
2023-05-20T05:00:28.079Z,100662.47
2023-05-20T05:03:15.011Z,100647.78
2023-05-20T05:05:56.024Z,100641.31
2023-05-20T05:08:42.889Z,100638.72
2023-05-20T05:11:29.976Z,100640.78
2023-05-20T05:14:16.938Z,100636.56
2023-05-20T05:17:03.959Z,100638.41
2023-05-20T05:19:44.328Z,100637.06
2023-05-20T05:22:30.987Z,100637.78
2023-05-20T05:25:12.246Z,100642.84
2023-05-20T05:27:58.870Z,100644.28
2023-05-20T05:30:45.903Z,100637.97
2023-05-20T05:33:26.117Z,100634.47
2023-05-20T05:36:12.976Z,100640.56
2023-05-20T05:38:53.083Z,100643.44
2023-05-20T05:41:39.909Z,100649.91
2023-05-20T05:44:27.937Z,100636.00
2023-05-20T05:47:21.890Z,100651.72
2023-05-20T05:50:02.374Z,100656.41
2023-05-20T05:52:49.892Z,100659.09
2023-05-20T05:55:36.903Z,100669.53
2023-05-20T05:58:17.769Z,100664.56
2023-05-20T06:01:04.954Z,100659.34
2023-05-20T06:03:45.099Z,100658.56
2023-05-20T06:06:31.874Z,100662.59
2023-05-20T06:09:18.923Z,100659.81
2023-05-20T06:11:59.298Z,100656.84
2023-05-20T06:14:45.854Z,100653.59
2023-05-20T06:17:32.898Z,100655.19
2023-05-20T06:20:14.041Z,100651.09
2023-05-20T06:23:00.838Z,100645.38
2023-05-20T06:26:05.996Z,100652.13
2023-05-20T06:28:52.848Z,100645.97
2023-05-20T06:31:33.096Z,100647.97
2023-05-20T06:34:19.904Z,100647.88
2023-05-20T06:36:59.986Z,100655.81
2023-05-20T06:39:46.867Z,100657.84
2023-05-20T06:42:27.944Z,100649.59
2023-05-20T06:45:18.804Z,100640.59
2023-05-20T06:48:16.855Z,100648.66
2023-05-20T06:51:03.841Z,100656.25
2023-05-20T06:53:51.824Z,100662.34
2023-05-20T06:56:38.973Z,100658.53
2023-05-20T06:59:20.847Z,100654.44
2023-05-20T07:02:08.036Z,100662.38
2023-05-20T07:04:47.785Z,100665.22
2023-05-20T07:07:28.177Z,100662.75
2023-05-20T07:10:14.845Z,100674.22
2023-05-20T07:12:55.264Z,100679.59
2023-05-20T07:15:41.862Z,100677.75
2023-05-20T07:18:29.797Z,100690.66
2023-05-20T07:21:09.933Z,100681.25
2023-05-20T07:24:31.735Z,100687.38
2023-05-20T07:27:19.002Z,100680.16
2023-05-20T07:29:59.196Z,100701.66
2023-05-20T07:45:27.838Z,100701.09
2023-05-20T07:48:16.012Z,100714.00
2023-05-20T07:50:59.215Z,100708.47
2023-05-20T07:53:46.885Z,100706.75
2023-05-20T07:56:27.064Z,100704.06
2023-05-20T07:59:13.818Z,100710.72
2023-05-20T08:02:02.887Z,100712.97
2023-05-20T08:04:43.331Z,100719.81
2023-05-20T08:07:30.845Z,100718.53
2023-05-20T08:10:11.919Z,100708.06
2023-05-20T08:13:00.770Z,100720.06
2023-05-20T08:15:47.818Z,100726.44
2023-05-20T08:18:28.099Z,100723.38
2023-05-20T08:21:14.833Z,100730.94
2023-05-20T08:23:54.911Z,100731.91
2023-05-20T08:26:41.805Z,100737.56
2023-05-20T08:29:30.793Z,100741.00
2023-05-20T08:32:11.596Z,100731.25
2023-05-20T08:34:59.790Z,100730.44
2023-05-20T08:37:40.161Z,100724.06
2023-05-20T08:40:27.857Z,100723.25
2023-05-20T08:43:14.817Z,100722.81
2023-05-20T08:45:56.067Z,100728.13
2023-05-20T08:48:43.831Z,100728.66
2023-05-20T08:51:27.936Z,100724.44
2023-05-20T08:54:15.834Z,100715.47
2023-05-20T08:56:56.031Z,100723.47
2023-05-20T08:59:43.798Z,100723.56
2023-05-20T09:02:23.875Z,100729.16
2023-05-20T09:05:11.851Z,100725.81
2023-05-20T09:07:51.925Z,100716.38
2023-05-20T09:10:39.778Z,100711.94
2023-05-20T09:13:26.835Z,100714.16
2023-05-20T09:16:07.346Z,100704.94
2023-05-20T09:18:53.783Z,100711.38
2023-05-20T09:21:35.891Z,100712.53
2023-05-20T09:24:22.734Z,100712.78
2023-05-20T09:27:03.230Z,100716.38
2023-05-20T09:29:50.749Z,100707.47
2023-05-20T09:32:31.480Z,100703.75
2023-05-20T09:35:19.764Z,100720.41
2023-05-20T09:38:00.378Z,100707.25
2023-05-20T09:40:46.792Z,100712.59
2023-05-20T09:43:27.405Z,100708.41
2023-05-20T09:46:13.737Z,100703.13
2023-05-20T09:48:54.796Z,100704.31
2023-05-20T09:51:42.713Z,100693.31
2023-05-20T09:54:25.687Z,100695.66
2023-05-20T09:57:13.723Z,100690.31
2023-05-20T10:00:00.737Z,100686.88
2023-05-20T10:02:59.858Z,100683.84
2023-05-20T10:06:07.532Z,100681.56
2023-05-20T10:08:57.747Z,100674.59
2023-05-20T10:11:56.727Z,100685.88
2023-05-20T10:14:52.650Z,100680.91
2023-05-20T10:17:54.872Z,100674.06
2023-05-20T10:20:34.739Z,100663.13
2023-05-20T10:23:27.919Z,100655.53
2023-05-20T10:26:20.736Z,100648.94
2023-05-20T10:29:01.170Z,100649.16
2023-05-20T10:31:58.729Z,100638.72
2023-05-20T10:34:54.659Z,100649.69
2023-05-20T10:37:36.795Z,100649.44
2023-05-20T10:40:26.670Z,100641.69
2023-05-20T10:43:19.044Z,100640.16
2023-05-20T10:46:10.485Z,100640.84
2023-05-20T10:48:56.997Z,100631.22
2023-05-20T10:51:43.654Z,100629.88
2023-05-20T10:54:23.760Z,100635.25
2023-05-20T10:57:15.696Z,100634.97
2023-05-20T10:59:56.898Z,100620.03
2023-05-20T11:02:44.753Z,100627.16
2023-05-20T11:05:25.823Z,100621.38
2023-05-20T11:08:27.769Z,100598.34
2023-05-20T11:11:15.644Z,100602.41
2023-05-20T11:13:57.490Z,100598.91
2023-05-20T11:16:44.786Z,100587.97
2023-05-20T11:19:26.733Z,100597.91
2023-05-20T11:22:13.645Z,100574.22
2023-05-20T11:25:00.679Z,100596.09
2023-05-20T11:27:41.481Z,100606.22
2023-05-20T11:30:28.643Z,100608.81
2023-05-20T11:33:11.310Z,100608.56
2023-05-20T11:35:59.590Z,100611.25
2023-05-20T11:38:39.706Z,100610.06
2023-05-20T11:41:31.682Z,100606.25
2023-05-20T11:44:16.763Z,100605.78
2023-05-20T11:47:08.608Z,100610.13
2023-05-20T11:49:48.737Z,100602.47
2023-05-20T11:52:35.585Z,100603.31
2023-05-20T11:55:18.711Z,100598.09
2023-05-20T11:58:06.577Z,100598.63
2023-05-20T12:00:52.804Z,100594.63
2023-05-20T12:03:42.740Z,100594.63
2023-05-20T12:06:23.676Z,100590.63
2023-05-20T12:09:14.598Z,100582.56
2023-05-20T12:11:56.706Z,100582.94
2023-05-20T12:14:43.692Z,100572.50
2023-05-20T12:17:30.615Z,100584.09
2023-05-20T12:20:13.191Z,100564.09
2023-05-20T12:22:59.592Z,100565.69
2023-05-20T12:25:39.968Z,100564.81
2023-05-20T12:28:26.755Z,100580.88
2023-05-20T12:31:07.750Z,100576.88
2023-05-20T12:33:54.616Z,100564.50
2023-05-20T12:36:34.936Z,100557.19
2023-05-20T12:39:24.605Z,100562.72
2023-05-20T12:42:05.099Z,100564.59
2023-05-20T12:44:51.551Z,100572.97
2023-05-20T12:47:39.597Z,100560.31
2023-05-20T12:50:19.729Z,100556.25
2023-05-20T12:53:06.577Z,100546.41
2023-05-20T12:55:46.759Z,100555.13
2023-05-20T12:58:33.508Z,100534.25
2023-05-20T13:01:13.690Z,100546.00
2023-05-20T13:04:00.527Z,100537.97
2023-05-20T13:06:41.624Z,100532.53
2023-05-20T13:09:28.556Z,100522.75
2023-05-20T13:12:08.742Z,100544.50
2023-05-20T13:14:55.544Z,100535.75
2023-05-20T13:17:35.729Z,100531.03
2023-05-20T13:20:23.512Z,100519.75
2023-05-20T13:23:10.544Z,100516.13
2023-05-20T13:25:57.477Z,100503.19
2023-05-20T13:28:37.662Z,100507.28
2023-05-20T13:31:24.578Z,100517.97
2023-05-20T13:34:04.740Z,100512.31
2023-05-20T13:36:52.537Z,100503.84
2023-05-20T13:39:39.552Z,100514.00
2023-05-20T13:42:26.556Z,100507.66
2023-05-20T13:45:13.641Z,100526.31
2023-05-20T13:47:53.597Z,100517.38
2023-05-20T13:50:43.401Z,100512.22
2023-05-20T13:53:23.892Z,100516.72
2023-05-20T13:56:11.550Z,100521.63
2023-05-20T13:58:58.445Z,100510.97
2023-05-20T14:01:40.598Z,100518.25
2023-05-20T14:04:28.542Z,100512.66
2023-05-20T14:07:09.947Z,100521.50
2023-05-20T14:09:56.694Z,100512.97
2023-05-20T14:12:37.319Z,100515.41
2023-05-20T14:15:25.540Z,100506.91
2023-05-20T14:18:12.635Z,100516.00
2023-05-20T14:20:52.733Z,100521.56
2023-05-20T14:23:39.461Z,100521.97
2023-05-20T14:26:19.591Z,100522.31
2023-05-20T14:29:06.491Z,100516.66
2023-05-20T14:31:46.616Z,100513.81
2023-05-20T14:34:33.487Z,100512.78
2023-05-20T14:37:13.785Z,100512.81
2023-05-20T14:40:01.434Z,100528.25
2023-05-20T14:42:48.467Z,100520.31
2023-05-20T14:45:35.577Z,100527.53
2023-05-20T14:48:15.493Z,100518.31
2023-05-20T14:50:56.012Z,100513.91
2023-05-20T14:53:42.446Z,100523.16
2023-05-20T14:56:29.473Z,100514.25
2023-05-20T14:59:09.784Z,100510.28
2023-05-20T15:01:56.482Z,100513.50
2023-05-20T15:04:43.401Z,100508.66
2023-05-20T15:07:23.826Z,100508.25
2023-05-20T15:10:10.408Z,100509.06
2023-05-20T15:12:51.385Z,100516.66
2023-05-20T15:15:39.379Z,100504.25
2023-05-20T15:18:29.539Z,100497.41
2023-05-20T15:21:09.705Z,100502.66
2023-05-20T15:23:56.476Z,100499.84
2023-05-20T15:26:46.361Z,100483.38
2023-05-20T15:29:26.876Z,100494.63
2023-05-20T15:32:13.562Z,100489.81
2023-05-20T15:34:55.744Z,100480.16
2023-05-20T15:37:42.339Z,100479.34
2023-05-20T15:40:22.833Z,100486.97
2023-05-20T15:43:09.529Z,100478.53
2023-05-20T15:45:56.586Z,100484.56
2023-05-20T15:48:36.518Z,100487.34
2023-05-20T15:51:18.014Z,100485.75
2023-05-20T15:54:04.360Z,100488.19
2023-05-20T15:56:51.364Z,100494.59
2023-05-20T15:59:38.400Z,100489.38
2023-05-20T16:02:18.842Z,100478.53
2023-05-20T16:05:05.606Z,100476.94
2023-05-20T16:07:46.802Z,100481.75
2023-05-20T16:10:38.514Z,100482.56
2023-05-20T16:13:18.733Z,100475.72
2023-05-20T16:16:05.471Z,100468.91
2023-05-20T16:18:46.305Z,100484.16
2023-05-20T16:21:36.523Z,100472.13
2023-05-20T16:24:17.136Z,100473.31
2023-05-20T16:27:04.369Z,100468.09
2023-05-20T16:29:45.672Z,100468.09
2023-05-20T16:32:32.418Z,100470.09
2023-05-20T16:35:19.342Z,100464.88
2023-05-20T16:37:59.521Z,100461.69
2023-05-20T16:40:46.300Z,100451.22
2023-05-20T16:43:33.291Z,100465.31
2023-05-20T16:46:20.770Z,100456.06
2023-05-20T16:49:00.344Z,100460.06
2023-05-20T16:51:40.725Z,100459.25
2023-05-20T16:54:28.346Z,100469.31
2023-05-20T16:57:08.893Z,100470.88
2023-05-20T16:59:55.340Z,100457.66
2023-05-20T17:02:42.349Z,100460.84
2023-05-20T17:05:22.578Z,100464.06
2023-05-20T17:08:09.355Z,100447.19
2023-05-20T17:10:56.318Z,100449.19
2023-05-20T17:13:36.690Z,100440.72
2023-05-20T17:16:23.295Z,100456.78
2023-05-20T17:19:10.286Z,100451.16
2023-05-20T17:21:50.536Z,100447.97
2023-05-20T17:24:37.271Z,100462.81
2023-05-20T17:27:24.283Z,100444.72
2023-05-20T17:30:05.692Z,100441.13
2023-05-20T17:32:54.091Z,100432.31
2023-05-20T17:35:35.638Z,100440.31
2023-05-20T17:38:22.255Z,100445.09
2023-05-20T17:41:02.583Z,100447.91
2023-05-20T17:43:49.311Z,100444.28
2023-05-20T17:46:36.524Z,100440.28
2023-05-20T17:49:16.234Z,100449.91
2023-05-20T17:52:03.312Z,100448.66
2023-05-20T17:54:43.234Z,100473.91
2023-05-20T17:57:23.581Z,100470.69
2023-05-20T18:00:10.214Z,100461.47
2023-05-20T18:03:00.629Z,100463.84
2023-05-20T18:05:41.256Z,100448.56
2023-05-20T18:08:28.629Z,100459.78
2023-05-20T18:11:08.168Z,100465.38
2023-05-20T18:13:48.593Z,100469.69
2023-05-20T18:16:35.198Z,100464.84
2023-05-20T18:19:15.803Z,100464.41
2023-05-20T18:22:02.184Z,100464.00
2023-05-20T18:24:42.615Z,100466.34
2023-05-20T18:27:29.168Z,100469.97
2023-05-20T18:30:17.209Z,100456.69
2023-05-20T18:32:57.553Z,100465.09
2023-05-20T18:35:44.161Z,100462.28
2023-05-20T18:38:24.269Z,100462.66
2023-05-20T18:41:12.216Z,100473.88
2023-05-20T18:43:52.274Z,100477.03
2023-05-20T18:46:40.230Z,100462.19
2023-05-20T18:49:20.346Z,100456.56
2023-05-20T18:52:07.220Z,100455.78
2023-05-20T18:54:47.455Z,100460.94
2023-05-20T18:57:34.176Z,100452.50
2023-05-20T19:00:15.713Z,100455.31
2023-05-20T19:03:04.239Z,100458.91
2023-05-20T19:05:51.252Z,100446.84
2023-05-20T19:08:39.147Z,100450.41
2023-05-20T19:11:26.158Z,100441.97
2023-05-20T19:14:07.573Z,100439.94
2023-05-20T19:16:55.207Z,100441.53
2023-05-20T19:19:35.695Z,100439.06
2023-05-20T19:22:22.147Z,100440.19
2023-05-20T19:25:02.575Z,100440.94
2023-05-20T19:27:49.167Z,100440.88
2023-05-20T19:46:54.292Z,100433.06
2023-05-20T19:49:41.346Z,100429.63
2023-05-20T19:52:21.375Z,100426.53
2023-05-20T19:55:08.294Z,100420.22
2023-05-20T19:57:53.297Z,100417.81
2023-05-20T20:00:40.291Z,100411.06
2023-05-20T20:03:20.629Z,100408.25
2023-05-20T20:06:07.316Z,100393.09
2023-05-20T20:08:47.400Z,100403.47
2023-05-20T20:11:34.302Z,100393.06
2023-05-20T20:14:14.389Z,100399.84
2023-05-20T20:17:01.287Z,100403.03
2023-05-20T20:19:49.255Z,100397.00
2023-05-20T20:22:36.289Z,100402.53
2023-05-20T20:25:16.477Z,100405.44
2023-05-20T20:28:03.306Z,100410.66
2023-05-20T20:30:44.466Z,100417.41
2023-05-20T20:33:31.234Z,100415.72
2023-05-20T20:36:11.428Z,100421.72
2023-05-20T20:38:58.299Z,100419.66
2023-05-20T20:41:46.282Z,100425.19
2023-05-20T20:44:33.297Z,100426.81
2023-05-20T20:47:14.858Z,100435.63
2023-05-20T20:50:03.302Z,100438.41
2023-05-20T20:52:43.458Z,100431.59
2023-05-20T20:55:30.299Z,100437.53
2023-05-20T20:58:10.608Z,100434.72
2023-05-20T21:00:57.306Z,100431.13
2023-05-20T21:03:47.281Z,100435.88
2023-05-20T21:06:27.611Z,100429.41
2023-05-20T21:09:14.209Z,100431.03
2023-05-20T21:12:03.172Z,100430.56
2023-05-20T21:14:44.449Z,100427.69
2023-05-20T21:17:31.267Z,100419.66
2023-05-20T21:20:12.382Z,100416.91
2023-05-20T21:22:59.214Z,100417.31
2023-05-20T21:25:46.178Z,100418.06
2023-05-20T21:28:33.227Z,100413.22
2023-05-20T21:31:13.453Z,100406.91
2023-05-20T21:34:00.267Z,100406.81
2023-05-20T21:36:40.336Z,100407.09
2023-05-20T21:39:27.175Z,100396.28
2023-05-20T21:42:14.257Z,100401.91
2023-05-20T21:45:01.237Z,100398.31
2023-05-20T21:47:48.142Z,100395.47
2023-05-20T21:50:35.134Z,100399.41
2023-05-20T21:53:15.342Z,100386.25
2023-05-20T21:56:02.165Z,100371.81
2023-05-20T21:58:42.311Z,100372.59
2023-05-20T22:01:29.240Z,100372.06
2023-05-20T22:04:16.217Z,100384.41
2023-05-20T22:07:03.157Z,100375.09
2023-05-20T22:09:50.137Z,100369.41
2023-05-20T22:12:38.237Z,100368.47
2023-05-20T22:15:18.268Z,100365.19
2023-05-20T22:18:07.616Z,100370.28
2023-05-20T22:20:49.219Z,100369.47
2023-05-20T22:23:36.187Z,100365.03
2023-05-20T22:26:19.053Z,100373.31
2023-05-20T22:29:06.169Z,100372.03
2023-05-20T22:31:46.300Z,100364.44
2023-05-20T22:34:33.211Z,100363.88
2023-05-20T22:37:13.259Z,100354.63
2023-05-20T22:40:00.136Z,100363.81
2023-05-20T22:42:47.057Z,100357.03
2023-05-20T22:45:34.342Z,100362.69
2023-05-20T22:48:14.407Z,100355.09
2023-05-20T22:51:03.150Z,100355.50
2023-05-20T22:53:43.255Z,100355.44
2023-05-20T22:56:30.224Z,100353.03
2023-05-20T22:59:17.130Z,100366.97
2023-05-20T23:01:57.617Z,100359.78
2023-05-20T23:04:44.126Z,100358.91
2023-05-20T23:07:24.629Z,100359.66
2023-05-20T23:10:11.113Z,100357.22
2023-05-20T23:12:52.262Z,100353.09
2023-05-20T23:15:39.055Z,100357.81
2023-05-20T23:18:26.073Z,100350.56
2023-05-20T23:21:13.098Z,100348.50
2023-05-20T23:24:00.096Z,100343.25
2023-05-20T23:26:47.070Z,100349.63
2023-05-20T23:29:27.592Z,100344.41
2023-05-20T23:32:14.047Z,100341.19
2023-05-20T23:34:55.417Z,100345.34
2023-05-20T23:37:42.209Z,100340.53
2023-05-20T23:40:29.101Z,100334.63
2023-05-20T23:43:16.139Z,100336.56
2023-05-20T23:46:10.128Z,100336.22
2023-05-20T23:48:50.553Z,100340.69
2023-05-20T23:51:37.060Z,100334.38
2023-05-20T23:54:25.039Z,100340.09
2023-05-20T23:57:05.323Z,100333.75
2023-05-20T23:59:52.086Z,100327.16
